Impacts TAF Board
For situational awareness. Not to be used for flight planning purposes.
IDs:

KSAT - San Antonio Intl, TX, US

Issued at 1720 UTC 13 Aug 2020
Updated at 2047 UTC 13 Aug 2020
Potential Impact None Slight Moderate High
Time<<14/09Z 14/10Z 14/11Z 14/12Z 14/13Z 14/14Z 14/15Z 14/16Z 14/17Z 14/18Z 14/19Z 14/20Z 14/21Z>>
Type PRVL PRVL PRVL PRVL PRVL PRVL PRVL PRVL PRVL PRVL PRVL PRVL PRVL
VIS >6 >6 >6 >6 >6 >6 >6 >6 >6 >6 >6 >6 >6
CIG -- -- -- -- -- -- -- -- -- -- -- -- --
Cover FEW FEW FEW FEW FEW FEW SKC SKC SKC SKC SKC SKC SKC
FltCat VFR VFR VFR VFR VFR VFR VFR VFR VFR VFR VFR VFR VFR
WX -- -- -- -- -- -- -- -- -- -- -- -- --
WDir 170 170 170 170 170 170 200 200 200 200 200 200 200
WSpd 7 7 7 7 7 7 9 9 9 9 9 9 9
WGst -- -- -- -- -- -- -- -- -- -- -- -- --
R04/22
XWnd -5 -5 -5 -5 -5 -5 -3 -3 -3 -3 -3 -3 -3
HWnd -4 -4 -4 -4 -4 -4 -8 -8 -8 -8 -8 -8 -8
R12/30
XWnd -4 -4 -4 -4 -4 -4 -8 -8 -8 -8 -8 -8 -8
HWnd 6 6 6 6 6 6 3 3 3 3 3 3 3
Raw TAF
KSAT 131720Z 1318/1424 18010KT P6SM SKC
  FM140800 17007KT P6SM FEW012
  FM141500 20009KT P6SM SKC


METAR Board
Radar Display
Forecast Discussion
For situational awareness. Not to be used for flight planning purposes.